Time;durP1;ratioP1;P1;durP2;ratioP2;P2;SDS_P1;SDS_P2;PMS_P1;PMS_P2;Temp;Humidity;BMP_temperature;BMP_pressure;BME280_temperature;BME280_humidity;BME280_pressure;Samples;Min_cycle;Max_cycle;Signal;HPM_P1;HPM_P2
2023/04/03 00:00:49;;;;;;;8.30;1.50;;;;;;;;;;6152451;23;20017;-46
2023/04/03 00:03:19;;;;;;;9.43;1.07;;;;;;;;;;6152554;23;20397;-45
2023/04/03 00:05:47;;;;;;;6.60;1.02;;;;;;;;;;6159047;23;20017;-43
2023/04/03 00:08:18;;;;;;;4.43;0.70;;;;;;;;;;6161333;23;20029;-45
2023/04/03 00:10:46;;;;;;;9.10;1.20;;;;;;;;;;6157016;23;20052;-43
2023/04/03 00:13:15;;;;;;;6.40;1.02;;;;;;;;;;6157224;23;20017;-43
2023/04/03 00:15:42;;;;;;;5.40;0.70;;;;;;;;;;6155903;23;20063;-47
2023/04/03 00:18:10;;;;;;;7.72;1.10;;;;;;;;;;6160079;23;20027;-43
2023/04/03 00:20:39;;;;;;;7.38;1.27;;;;;;;;;;6150478;23;20477;-45
2023/04/03 00:23:07;;;;;;;5.40;1.27;;;;;;;;;;6140300;23;20116;-44
2023/04/03 00:25:35;;;;;;;8.07;1.50;;;;;;;;;;6127106;23;20108;-44
2023/04/03 00:28:03;;;;;;;8.83;1.53;;;;;;;;;;6162160;23;20071;-43
2023/04/03 00:30:31;;;;;;;7.82;1.33;;;;;;;;;;6154511;23;20449;-45
2023/04/03 00:33:00;;;;;;;6.43;1.27;;;;;;;;;;6160297;23;20052;-44
2023/04/03 00:35:28;;;;;;;6.78;1.33;;;;;;;;;;6157328;23;20031;-43
2023/04/03 00:37:57;;;;;;;5.80;1.02;;;;;;;;;;6161931;23;20067;-43
2023/04/03 00:40:26;;;;;;;11.43;1.60;;;;;;;;;;6134179;23;20021;-45
2023/04/03 00:42:56;;;;;;;6.57;1.17;;;;;;;;;;6160563;23;20037;-46
2023/04/03 00:45:26;;;;;;;8.88;1.58;;;;;;;;;;6158901;23;20093;-43
2023/04/03 00:47:55;;;;;;;7.30;1.08;;;;;;;;;;6162274;23;20021;-44
2023/04/03 00:50:23;;;;;;;5.75;1.42;;;;;;;;;;6156752;23;20031;-44
2023/04/03 00:52:51;;;;;;;5.87;1.07;;;;;;;;;;6157105;23;20017;-44
2023/04/03 00:55:21;;;;;;;8.20;1.48;;;;;;;;;;6153929;23;20041;-44
2023/04/03 00:57:48;;;;;;;7.63;1.60;;;;;;;;;;6137068;23;20403;-44
2023/04/03 01:00:19;;;;;;;9.15;1.77;;;;;;;;;;6159585;23;20471;-43
2023/04/03 01:02:47;;;;;;;6.10;1.70;;;;;;;;;;6161298;23;20021;-43
2023/04/03 01:05:16;;;;;;;7.33;1.50;;;;;;;;;;6154926;23;20375;-44
2023/04/03 01:07:44;;;;;;;5.60;1.40;;;;;;;;;;6158983;23;20017;-44
2023/04/03 01:10:13;;;;;;;8.23;1.92;;;;;;;;;;6130842;23;20046;-43
2023/04/03 01:12:44;;;;;;;6.35;1.30;;;;;;;;;;6138846;23;20017;-46
2023/04/03 01:15:15;;;;;;;6.18;1.55;;;;;;;;;;6155625;23;20478;-44
2023/04/03 01:17:44;;;;;;;7.57;1.80;;;;;;;;;;6163703;23;20040;-45
2023/04/03 01:20:27;;;;;;;7.95;1.48;;;;;;;;;;6161483;23;20017;-43
2023/04/03 01:22:59;;;;;;;6.30;1.73;;;;;;;;;;6097616;23;20028;-44
2023/04/03 01:25:27;;;;;;;9.52;1.83;;;;;;;;;;6154571;23;20509;-43
2023/04/03 01:27:56;;;;;;;7.00;1.90;;;;;;;;;;6134621;23;20110;-45
2023/04/03 01:30:26;;;;;;;11.30;1.83;;;;;;;;;;6130515;23;20101;-45
2023/04/03 01:32:55;;;;;;;6.32;1.60;;;;;;;;;;6158409;23;20017;-45
2023/04/03 01:35:23;;;;;;;6.45;1.80;;;;;;;;;;6161678;23;20017;-45
2023/04/03 01:37:50;;;;;;;7.65;1.73;;;;;;;;;;6156355;23;20028;-44
2023/04/03 01:40:18;;;;;;;7.05;1.58;;;;;;;;;;6158285;23;20024;-47
2023/04/03 01:42:46;;;;;;;9.57;1.73;;;;;;;;;;6156633;23;20040;-44
2023/04/03 01:45:14;;;;;;;6.97;1.40;;;;;;;;;;6149954;23;20096;-45
2023/04/03 01:47:42;;;;;;;8.20;1.38;;;;;;;;;;6161943;23;20071;-44
2023/04/03 01:50:11;;;;;;;11.20;1.73;;;;;;;;;;6158111;23;20025;-44
2023/04/03 01:52:39;;;;;;;5.65;1.52;;;;;;;;;;6135134;23;20047;-43
2023/04/03 01:55:07;;;;;;;8.97;2.00;;;;;;;;;;6152886;23;20104;-44
2023/04/03 01:57:35;;;;;;;8.32;1.45;;;;;;;;;;6161633;23;20493;-44
2023/04/03 02:00:03;;;;;;;7.45;1.77;;;;;;;;;;6121545;23;20021;-45
2023/04/03 02:02:31;;;;;;;8.98;1.50;;;;;;;;;;6132172;23;20071;-44
2023/04/03 02:04:58;;;;;;;10.65;1.63;;;;;;;;;;6127292;23;20456;-43
2023/04/03 02:07:27;;;;;;;8.57;1.70;;;;;;;;;;6158998;23;20068;-44
2023/04/03 02:09:55;;;;;;;7.72;1.95;;;;;;;;;;6132965;23;20044;-44
2023/04/03 02:12:23;;;;;;;5.90;1.33;;;;;;;;;;6135963;23;20360;-46
2023/04/03 02:14:50;;;;;;;7.68;1.67;;;;;;;;;;6153767;23;20542;-44
2023/04/03 02:17:18;;;;;;;7.35;1.90;;;;;;;;;;6162159;23;20128;-44
2023/04/03 02:19:46;;;;;;;9.63;1.90;;;;;;;;;;6160789;23;20017;-43
2023/04/03 02:22:14;;;;;;;7.30;2.10;;;;;;;;;;6151125;23;20024;-43
2023/04/03 02:24:43;;;;;;;6.82;2.00;;;;;;;;;;6158629;23;20452;-44
2023/04/03 02:27:11;;;;;;;8.27;1.83;;;;;;;;;;6157342;23;20010;-43
2023/04/03 02:29:39;;;;;;;7.18;2.03;;;;;;;;;;6161474;23;20444;-43
2023/04/03 02:32:06;;;;;;;8.20;1.90;;;;;;;;;;6135688;23;20055;-46
2023/04/03 02:34:34;;;;;;;5.75;1.65;;;;;;;;;;6147745;23;20048;-43
2023/04/03 02:37:02;;;;;;;8.10;2.08;;;;;;;;;;6163969;23;20140;-43
2023/04/03 02:39:30;;;;;;;6.63;1.65;;;;;;;;;;6160747;23;20407;-43
2023/04/03 02:42:00;;;;;;;5.90;1.73;;;;;;;;;;6160548;23;20401;-43
2023/04/03 02:44:28;;;;;;;9.17;1.87;;;;;;;;;;6156254;23;20087;-44
2023/04/03 02:46:55;;;;;;;6.43;1.80;;;;;;;;;;6160213;23;20017;-43
2023/04/03 02:49:23;;;;;;;7.07;1.80;;;;;;;;;;6146437;23;20597;-44
2023/04/03 02:51:51;;;;;;;5.65;1.77;;;;;;;;;;6159162;23;20025;-48
2023/04/03 02:54:19;;;;;;;9.73;1.90;;;;;;;;;;6129942;23;20428;-44
2023/04/03 02:56:46;;;;;;;8.90;2.23;;;;;;;;;;6158756;23;20013;-45
2023/04/03 02:59:16;;;;;;;7.93;1.65;;;;;;;;;;6160754;23;20308;-47
2023/04/03 03:01:43;;;;;;;6.35;1.95;;;;;;;;;;6154069;23;20021;-44
2023/04/03 03:04:11;;;;;;;8.18;1.90;;;;;;;;;;6159141;23;20062;-44
2023/04/03 03:06:39;;;;;;;10.27;1.95;;;;;;;;;;6159535;23;20053;-45
2023/04/03 03:09:09;;;;;;;9.37;2.50;;;;;;;;;;6158882;23;20021;-44
2023/04/03 03:11:36;;;;;;;10.40;2.35;;;;;;;;;;6146227;23;20021;-43
2023/04/03 03:14:04;;;;;;;9.02;2.00;;;;;;;;;;6159917;23;20020;-43
2023/04/03 03:16:33;;;;;;;6.97;1.90;;;;;;;;;;6146773;23;20113;-45
2023/04/03 03:19:01;;;;;;;8.20;1.80;;;;;;;;;;6159466;23;20097;-45
2023/04/03 03:21:29;;;;;;;9.13;2.10;;;;;;;;;;6154291;23;20633;-44
2023/04/03 03:23:56;;;;;;;8.20;2.17;;;;;;;;;;6159394;23;20041;-45
2023/04/03 03:26:24;;;;;;;6.60;1.98;;;;;;;;;;6152263;23;20787;-44
2023/04/03 03:28:52;;;;;;;9.45;2.28;;;;;;;;;;6158797;23;20096;-43
2023/04/03 03:31:20;;;;;;;7.45;1.80;;;;;;;;;;6157301;23;20524;-43
2023/04/03 03:33:49;;;;;;;6.80;2.23;;;;;;;;;;6165844;23;20037;-44
2023/04/03 03:36:17;;;;;;;7.93;1.83;;;;;;;;;;6153581;23;20510;-44
2023/04/03 03:38:48;;;;;;;6.68;1.92;;;;;;;;;;6154250;23;20048;-45
2023/04/03 03:41:16;;;;;;;7.25;1.88;;;;;;;;;;6134199;23;20013;-45
2023/04/03 03:43:44;;;;;;;9.20;2.53;;;;;;;;;;6158114;23;20044;-43
2023/04/03 03:46:11;;;;;;;7.50;2.27;;;;;;;;;;6161810;23;20040;-44
2023/04/03 03:48:39;;;;;;;8.70;2.20;;;;;;;;;;6128841;23;20060;-43
2023/04/03 03:51:08;;;;;;;9.18;1.95;;;;;;;;;;6157737;23;20021;-46
2023/04/03 03:53:35;;;;;;;9.32;2.08;;;;;;;;;;6158876;23;20406;-44
2023/04/03 03:56:04;;;;;;;8.00;1.52;;;;;;;;;;6153250;23;20028;-44
2023/04/03 03:58:32;;;;;;;6.57;1.77;;;;;;;;;;6158670;23;20009;-43
2023/04/03 04:01:01;;;;;;;7.82;2.20;;;;;;;;;;6163440;23;20087;-46
2023/04/03 04:03:28;;;;;;;8.68;2.30;;;;;;;;;;6150160;23;20072;-43
2023/04/03 04:05:56;;;;;;;6.85;2.15;;;;;;;;;;6163418;23;20644;-43
2023/04/03 04:08:25;;;;;;;7.93;2.15;;;;;;;;;;6152899;23;20040;-45
2023/04/03 04:10:53;;;;;;;7.70;2.57;;;;;;;;;;6163884;23;20032;-46
2023/04/03 04:13:21;;;;;;;12.07;1.95;;;;;;;;;;6152365;23;20505;-43
2023/04/03 04:15:49;;;;;;;8.45;2.22;;;;;;;;;;6164256;23;20021;-43
2023/04/03 04:18:17;;;;;;;6.78;1.77;;;;;;;;;;6125451;23;20492;-45
2023/04/03 04:20:45;;;;;;;9.52;2.38;;;;;;;;;;6136064;23;20044;-45
2023/04/03 04:23:13;;;;;;;8.77;1.90;;;;;;;;;;6159688;23;20116;-43
2023/04/03 04:25:44;;;;;;;6.45;1.63;;;;;;;;;;6154954;23;20096;-46
2023/04/03 04:28:12;;;;;;;9.80;2.28;;;;;;;;;;6132703;23;20121;-45
2023/04/03 04:30:41;;;;;;;9.43;2.35;;;;;;;;;;6162007;23;20071;-46
2023/04/03 04:33:09;;;;;;;9.25;2.53;;;;;;;;;;6156556;23;20020;-43
2023/04/03 04:35:37;;;;;;;8.53;2.30;;;;;;;;;;6160201;23;20023;-43
2023/04/03 04:38:05;;;;;;;7.03;1.98;;;;;;;;;;6127438;23;20017;-44
2023/04/03 04:40:33;;;;;;;7.72;2.28;;;;;;;;;;6157672;23;20100;-43
2023/04/03 04:43:02;;;;;;;8.15;2.17;;;;;;;;;;6161042;23;20688;-43
2023/04/03 04:45:29;;;;;;;8.00;2.15;;;;;;;;;;6151986;23;20524;-43
2023/04/03 04:47:57;;;;;;;6.73;2.37;;;;;;;;;;6159419;23;20013;-43
2023/04/03 04:50:25;;;;;;;7.97;2.08;;;;;;;;;;6155096;23;20017;-43
2023/04/03 04:52:53;;;;;;;8.73;2.05;;;;;;;;;;6160268;23;20024;-44
2023/04/03 04:55:20;;;;;;;9.32;2.40;;;;;;;;;;6131613;23;20017;-44
2023/04/03 04:57:48;;;;;;;12.38;2.80;;;;;;;;;;6158472;23;20702;-43
2023/04/03 05:00:18;;;;;;;10.83;2.70;;;;;;;;;;6150573;23;20013;-43
2023/04/03 05:02:45;;;;;;;11.20;2.40;;;;;;;;;;6162008;23;20021;-45
2023/04/03 05:05:14;;;;;;;9.18;2.70;;;;;;;;;;6157192;23;20502;-45
2023/04/03 05:07:42;;;;;;;9.05;2.58;;;;;;;;;;6162194;23;20020;-43
2023/04/03 05:10:10;;;;;;;7.25;2.30;;;;;;;;;;6158336;23;20072;-44
2023/04/03 05:12:38;;;;;;;8.80;2.53;;;;;;;;;;6163688;23;20044;-44
2023/04/03 05:15:06;;;;;;;10.77;2.78;;;;;;;;;;6156001;23;20088;-45
2023/04/03 05:17:35;;;;;;;8.15;2.10;;;;;;;;;;6163008;23;20075;-44
2023/04/03 05:20:04;;;;;;;9.50;2.28;;;;;;;;;;6158246;23;20357;-44
2023/04/03 05:22:31;;;;;;;7.88;2.60;;;;;;;;;;6160121;23;20017;-46
2023/04/03 05:24:59;;;;;;;10.73;2.40;;;;;;;;;;6160571;23;20052;-45
2023/04/03 05:27:28;;;;;;;8.60;2.30;;;;;;;;;;6127922;23;20456;-44
2023/04/03 05:29:56;;;;;;;8.10;2.47;;;;;;;;;;6135045;23;20009;-44
2023/04/03 05:32:24;;;;;;;8.73;2.55;;;;;;;;;;6160053;23;20032;-43
2023/04/03 05:34:54;;;;;;;8.43;2.42;;;;;;;;;;6156487;23;20013;-45
2023/04/03 05:37:21;;;;;;;7.13;2.50;;;;;;;;;;6137160;23;20091;-44
2023/04/03 05:39:49;;;;;;;10.18;2.60;;;;;;;;;;6157302;23;20021;-44
2023/04/03 05:42:17;;;;;;;8.18;2.38;;;;;;;;;;6162171;23;20013;-44
2023/04/03 05:44:46;;;;;;;8.50;2.88;;;;;;;;;;6131141;23;20017;-43
2023/04/03 05:47:14;;;;;;;9.05;2.42;;;;;;;;;;6165600;23;20021;-45
2023/04/03 05:49:45;;;;;;;9.27;2.70;;;;;;;;;;6155252;23;20017;-43
2023/04/03 05:52:18;;;;;;;10.32;2.95;;;;;;;;;;6158762;23;20024;-44
2023/04/03 05:54:48;;;;;;;9.50;2.33;;;;;;;;;;6158157;23;20092;-45
2023/04/03 05:57:16;;;;;;;7.60;2.28;;;;;;;;;;6160773;23;20013;-44
2023/04/03 05:59:44;;;;;;;9.55;2.47;;;;;;;;;;6159932;23;20368;-43
2023/04/03 06:02:12;;;;;;;10.20;3.23;;;;;;;;;;6134804;23;20021;-44
2023/04/03 06:04:40;;;;;;;11.50;3.20;;;;;;;;;;6160041;23;20041;-44
2023/04/03 06:07:12;;;;;;;8.27;2.53;;;;;;;;;;6155271;23;20017;-43
2023/04/03 06:09:41;;;;;;;7.95;2.47;;;;;;;;;;6159413;23;20040;-44
2023/04/03 06:12:08;;;;;;;11.18;2.92;;;;;;;;;;6126974;23;20093;-43
2023/04/03 06:14:36;;;;;;;8.13;3.10;;;;;;;;;;6136132;23;20105;-47
2023/04/03 06:17:04;;;;;;;7.95;2.97;;;;;;;;;;6124510;23;20067;-45
2023/04/03 06:19:31;;;;;;;10.02;3.35;;;;;;;;;;6162403;23;20021;-43
2023/04/03 06:21:59;;;;;;;9.85;2.83;;;;;;;;;;6129549;23;20349;-44
2023/04/03 06:24:27;;;;;;;10.23;3.30;;;;;;;;;;6158996;23;20068;-43
2023/04/03 06:26:56;;;;;;;9.37;3.30;;;;;;;;;;6152468;23;20045;-44
2023/04/03 06:29:25;;;;;;;13.25;3.72;;;;;;;;;;6137905;23;20060;-44
2023/04/03 06:31:53;;;;;;;10.35;3.72;;;;;;;;;;6153043;23;20025;-44
2023/04/03 06:34:21;;;;;;;8.77;3.53;;;;;;;;;;6137171;23;20017;-46
2023/04/03 06:36:50;;;;;;;10.90;3.10;;;;;;;;;;6154333;23;20213;-44
2023/04/03 06:39:19;;;;;;;10.07;3.10;;;;;;;;;;6163718;23;20013;-44
2023/04/03 06:41:46;;;;;;;10.10;3.08;;;;;;;;;;6150648;23;20397;-43
2023/04/03 06:44:16;;;;;;;9.55;3.53;;;;;;;;;;6161341;23;20017;-49
2023/04/03 06:46:45;;;;;;;11.80;3.28;;;;;;;;;;6153530;23;20551;-47
2023/04/03 06:49:13;;;;;;;8.48;3.25;;;;;;;;;;6156044;23;20338;-44
2023/04/03 06:51:41;;;;;;;12.20;3.27;;;;;;;;;;6156838;23;20064;-44
2023/04/03 06:54:09;;;;;;;12.32;3.33;;;;;;;;;;6159180;23;20067;-44
2023/04/03 06:56:37;;;;;;;11.82;2.50;;;;;;;;;;6127655;23;20043;-44
2023/04/03 06:59:04;;;;;;;12.27;3.05;;;;;;;;;;6157529;23;20041;-44
2023/04/03 07:01:33;;;;;;;8.75;2.53;;;;;;;;;;6160361;23;20052;-43
2023/04/03 07:04:02;;;;;;;8.47;2.73;;;;;;;;;;6150400;23;20096;-44
2023/04/03 07:06:30;;;;;;;10.75;2.10;;;;;;;;;;6130929;23;20021;-44
2023/04/03 07:08:58;;;;;;;10.90;2.92;;;;;;;;;;6156694;23;20017;-45
2023/04/03 07:11:28;;;;;;;12.70;3.03;;;;;;;;;;6156597;23;20013;-44
2023/04/03 07:13:56;;;;;;;11.73;2.30;;;;;;;;;;6160937;23;20436;-45
2023/04/03 07:16:24;;;;;;;9.47;2.33;;;;;;;;;;6155453;23;20045;-44
2023/04/03 07:18:53;;;;;;;10.10;1.98;;;;;;;;;;6165300;23;20013;-47
2023/04/03 07:21:21;;;;;;;10.32;2.17;;;;;;;;;;6130052;23;20033;-44
2023/04/03 07:23:48;;;;;;;10.38;1.98;;;;;;;;;;6159537;23;20536;-44
2023/04/03 07:26:22;;;;;;;7.10;2.33;;;;;;;;;;6154190;23;20013;-46
2023/04/03 07:28:50;;;;;;;11.33;1.70;;;;;;;;;;6152876;23;20088;-46
2023/04/03 07:31:18;;;;;;;10.05;2.25;;;;;;;;;;6155820;23;20017;-43
2023/04/03 07:33:46;;;;;;;7.88;2.55;;;;;;;;;;6155925;23;20548;-44
2023/04/03 07:36:17;;;;;;;6.53;1.98;;;;;;;;;;6155253;23;20013;-44
2023/04/03 07:38:45;;;;;;;5.90;1.92;;;;;;;;;;6133368;23;20459;-43
2023/04/03 07:41:15;;;;;;;8.43;2.17;;;;;;;;;;6157844;23;20079;-46
2023/04/03 07:43:43;;;;;;;10.75;2.35;;;;;;;;;;6154506;23;20017;-43
2023/04/03 07:46:10;;;;;;;6.10;2.13;;;;;;;;;;6162892;23;20017;-43
2023/04/03 07:48:38;;;;;;;5.57;1.40;;;;;;;;;;6146875;23;20017;-44
2023/04/03 07:51:06;;;;;;;8.45;1.58;;;;;;;;;;6161528;23;20017;-43
2023/04/03 07:53:35;;;;;;;8.13;1.90;;;;;;;;;;6130193;23;20029;-44
2023/04/03 07:56:03;;;;;;;6.60;1.65;;;;;;;;;;6154766;23;20025;-47
2023/04/03 07:58:31;;;;;;;8.07;1.83;;;;;;;;;;6154685;23;20139;-43
2023/04/03 08:00:59;;;;;;;8.82;1.85;;;;;;;;;;6163309;23;20179;-45
2023/04/03 08:03:27;;;;;;;8.18;1.20;;;;;;;;;;6154853;23;20013;-45
2023/04/03 08:05:55;;;;;;;7.80;1.90;;;;;;;;;;6156756;23;20084;-44
2023/04/03 08:08:23;;;;;;;9.60;1.42;;;;;;;;;;6152940;23;20013;-45
2023/04/03 08:10:53;;;;;;;8.00;1.70;;;;;;;;;;6134272;23;20104;-44
2023/04/03 08:13:22;;;;;;;8.63;1.45;;;;;;;;;;6128281;23;20562;-43
2023/04/03 08:15:50;;;;;;;7.57;1.92;;;;;;;;;;6157633;23;20027;-45
2023/04/03 08:18:21;;;;;;;6.03;1.43;;;;;;;;;;6150248;23;20017;-44
2023/04/03 08:20:48;;;;;;;7.68;1.35;;;;;;;;;;6157505;23;20021;-44
2023/04/03 08:23:16;;;;;;;7.45;1.23;;;;;;;;;;6150222;23;20055;-45
2023/04/03 08:25:46;;;;;;;6.00;1.27;;;;;;;;;;6152256;23;20577;-44
2023/04/03 08:28:16;;;;;;;6.88;1.35;;;;;;;;;;6122334;23;20026;-44
2023/04/03 08:30:44;;;;;;;5.83;1.37;;;;;;;;;;6103295;23;20092;-44
2023/04/03 08:33:11;;;;;;;5.15;1.05;;;;;;;;;;6110265;23;20025;-45
2023/04/03 08:35:40;;;;;;;7.53;1.38;;;;;;;;;;6108569;23;20052;-44
2023/04/03 08:38:08;;;;;;;12.50;1.30;;;;;;;;;;6108970;23;20045;-46
2023/04/03 08:40:36;;;;;;;10.77;1.42;;;;;;;;;;6115393;23;20013;-45
2023/04/03 08:43:12;;;;;;;10.30;1.10;;;;;;;;;;6121061;23;20022;-45
2023/04/03 08:45:46;;;;;;;5.75;1.40;;;;;;;;;;6106587;23;20013;-45
2023/04/03 08:48:16;;;;;;;8.57;1.77;;;;;;;;;;6113105;23;20026;-43
2023/04/03 08:50:46;;;;;;;7.95;1.20;;;;;;;;;;6115437;23;20508;-46
2023/04/03 08:53:16;;;;;;;8.73;1.30;;;;;;;;;;6119876;23;20452;-44
2023/04/03 08:55:46;;;;;;;8.00;1.17;;;;;;;;;;6113464;23;20075;-45
2023/04/03 08:58:16;;;;;;;8.10;1.13;;;;;;;;;;6115262;23;20021;-44
2023/04/03 09:00:48;;;;;;;6.55;1.60;;;;;;;;;;6100129;23;20093;-43
2023/04/03 09:03:17;;;;;;;8.70;1.45;;;;;;;;;;6116582;23;20073;-44
2023/04/03 09:05:48;;;;;;;5.75;1.02;;;;;;;;;;6105753;23;20378;-44
2023/04/03 09:08:22;;;;;;;7.73;1.70;;;;;;;;;;6116685;23;20464;-44
2023/04/03 09:10:52;;;;;;;6.72;1.25;;;;;;;;;;6113368;23;20444;-44
2023/04/03 09:13:26;;;;;;;6.57;1.40;;;;;;;;;;6118081;23;20096;-44
2023/04/03 09:15:57;;;;;;;6.60;1.10;;;;;;;;;;6113524;23;20025;-44
2023/04/03 09:18:27;;;;;;;7.70;1.38;;;;;;;;;;6108805;23;20026;-44
2023/04/03 09:20:59;;;;;;;5.00;1.30;;;;;;;;;;6113854;23;20032;-45
2023/04/03 09:23:30;;;;;;;6.75;1.75;;;;;;;;;;6112751;23;20554;-45
2023/04/03 09:26:01;;;;;;;4.55;1.10;;;;;;;;;;6106951;23;20017;-47
2023/04/03 09:28:30;;;;;;;5.88;1.02;;;;;;;;;;6125172;23;20475;-43
2023/04/03 09:31:16;;;;;;;8.02;0.98;;;;;;;;;;6148395;23;20021;-45
2023/04/03 09:33:45;;;;;;;6.27;1.30;;;;;;;;;;6116812;23;20029;-44
2023/04/03 09:36:13;;;;;;;7.13;1.35;;;;;;;;;;6141447;23;20071;-44
2023/04/03 09:38:41;;;;;;;7.55;1.58;;;;;;;;;;6139006;23;20782;-46
2023/04/03 09:41:15;;;;;;;8.82;1.40;;;;;;;;;;6146079;23;20069;-46
2023/04/03 09:43:53;;;;;;;3.97;0.88;;;;;;;;;;6144431;23;20017;-44
2023/04/03 09:46:36;;;;;;;8.87;1.50;;;;;;;;;;6145121;23;20474;-44
2023/04/03 09:49:06;;;;;;;9.80;1.92;;;;;;;;;;6139945;23;20032;-44
2023/04/03 09:51:36;;;;;;;6.78;2.20;;;;;;;;;;6144709;23;20343;-44
2023/04/03 09:54:25;;;;;;;9.25;1.75;;;;;;;;;;6142491;23;20103;-44
2023/04/03 09:56:55;;;;;;;5.97;1.40;;;;;;;;;;6144770;23;20027;-45
2023/04/03 09:59:23;;;;;;;6.50;1.90;;;;;;;;;;6143846;23;20021;-44
2023/04/03 10:01:59;;;;;;;8.57;1.90;;;;;;;;;;6116530;23;20024;-46
2023/04/03 10:04:37;;;;;;;7.03;1.63;;;;;;;;;;6110418;23;20016;-44
2023/04/03 10:07:09;;;;;;;7.32;1.90;;;;;;;;;;6137014;23;20452;-45
2023/04/03 10:09:41;;;;;;;6.53;2.10;;;;;;;;;;6149187;23;20369;-44
2023/04/03 10:12:10;;;;;;;5.50;1.40;;;;;;;;;;6110509;23;20881;-44
2023/04/03 10:14:40;;;;;;;7.00;1.58;;;;;;;;;;6137618;23;20112;-45
2023/04/03 10:17:19;;;;;;;7.25;2.13;;;;;;;;;;6145293;23;20016;-46
2023/04/03 10:19:48;;;;;;;5.32;1.77;;;;;;;;;;6140806;23;20083;-44
2023/04/03 10:22:19;;;;;;;5.82;1.80;;;;;;;;;;6144748;23;20021;-45
2023/04/03 10:24:51;;;;;;;7.03;1.30;;;;;;;;;;6137752;23;20017;-44
2023/04/03 10:27:28;;;;;;;6.10;1.80;;;;;;;;;;6137941;23;20141;-45
2023/04/03 10:29:59;;;;;;;9.27;1.75;;;;;;;;;;6149908;23;20048;-47
2023/04/03 10:32:41;;;;;;;7.32;1.90;;;;;;;;;;6157960;23;20412;-44
2023/04/03 10:35:15;;;;;;;8.27;1.88;;;;;;;;;;6152468;23;20079;-44
2023/04/03 10:37:51;;;;;;;7.57;1.63;;;;;;;;;;6135411;23;20017;-45
2023/04/03 10:40:25;;;;;;;10.45;2.45;;;;;;;;;;6160633;23;20869;-45
2023/04/03 10:42:57;;;;;;;9.27;2.03;;;;;;;;;;6161475;23;20013;-46
2023/04/03 10:45:27;;;;;;;5.10;1.42;;;;;;;;;;6117966;23;20020;-44
2023/04/03 10:48:01;;;;;;;11.32;2.47;;;;;;;;;;6136068;23;20741;-44
2023/04/03 10:50:44;;;;;;;5.93;2.17;;;;;;;;;;6154004;23;20029;-44
2023/04/03 10:53:21;;;;;;;7.68;2.17;;;;;;;;;;6161695;23;20484;-46
2023/04/03 10:55:53;;;;;;;9.75;2.47;;;;;;;;;;6161656;23;20044;-47
2023/04/03 10:58:24;;;;;;;5.85;1.55;;;;;;;;;;6161446;23;20096;-44
2023/04/03 11:00:53;;;;;;;8.57;2.05;;;;;;;;;;6126017;23;20021;-44
2023/04/03 11:03:27;;;;;;;7.03;1.77;;;;;;;;;;6157688;23;20017;-47
2023/04/03 11:05:58;;;;;;;8.82;2.00;;;;;;;;;;6162545;23;20092;-43
2023/04/03 11:08:28;;;;;;;5.95;2.38;;;;;;;;;;6156316;23;20017;-44
2023/04/03 11:10:57;;;;;;;7.03;1.67;;;;;;;;;;6160395;23;20017;-44
2023/04/03 11:13:27;;;;;;;5.82;1.83;;;;;;;;;;6152563;23;20017;-46
2023/04/03 11:15:55;;;;;;;6.10;1.93;;;;;;;;;;6157947;23;20088;-44
2023/04/03 11:18:26;;;;;;;15.40;2.63;;;;;;;;;;6155051;23;20021;-43
2023/04/03 11:24:04;;;;;;;8.38;2.75;;;;;;;;;;4754897;27;10002227;-45
2023/04/03 11:26:36;;;;;;;8.50;1.98;;;;;;;;;;5086311;27;20078;-45
2023/04/03 11:29:07;;;;;;;5.17;1.90;;;;;;;;;;5096517;27;20040;-45
2023/04/03 11:31:41;;;;;;;8.27;1.90;;;;;;;;;;5092434;27;20754;-45
2023/04/03 11:34:14;;;;;;;6.45;1.98;;;;;;;;;;5090934;27;20036;-44
2023/04/03 11:36:45;;;;;;;7.65;2.20;;;;;;;;;;5093975;28;20450;-46
2023/04/03 11:39:21;;;;;;;13.18;2.58;;;;;;;;;;5101849;27;20036;-46
2023/04/03 11:41:49;;;;;;;7.07;2.67;;;;;;;;;;5090227;28;20119;-45
2023/04/03 11:44:30;;;;;;;5.18;1.67;;;;;;;;;;5089648;27;20466;-44
2023/04/03 11:46:58;;;;;;;10.93;2.33;;;;;;;;;;5092360;27;20047;-44
2023/04/03 11:49:45;;;;;;;9.07;2.30;;;;;;;;;;4749383;27;9999807;-44
2023/04/03 11:52:13;;;;;;;10.73;2.17;;;;;;;;;;5098202;27;20024;-44
2023/04/03 11:54:47;;;;;;;8.00;2.50;;;;;;;;;;5100560;27;20059;-45
2023/04/03 11:57:35;;;;;;;10.90;2.17;;;;;;;;;;5088641;28;20035;-44
2023/04/03 12:00:22;;;;;;;6.97;1.90;;;;;;;;;;5095485;28;20032;-44
2023/04/03 12:02:50;;;;;;;6.53;2.03;;;;;;;;;;5101591;27;20043;-45
2023/04/03 12:05:28;;;;;;;7.60;2.90;;;;;;;;;;5096109;28;20055;-45
2023/04/03 12:08:15;;;;;;;9.18;2.40;;;;;;;;;;5088764;27;20036;-45
2023/04/03 12:11:04;;;;;;;7.17;2.33;;;;;;;;;;5085805;28;20040;-48
2023/04/03 12:14:03;;;;;;;7.18;2.40;;;;;;;;;;5094506;28;20059;-43
2023/04/03 12:16:33;;;;;;;7.57;2.28;;;;;;;;;;5102773;28;20044;-45
2023/04/03 12:19:03;;;;;;;7.32;2.40;;;;;;;;;;5100364;28;20055;-43
2023/04/03 12:21:56;;;;;;;9.35;2.47;;;;;;;;;;5094938;28;20130;-45
2023/04/03 12:24:25;;;;;;;7.17;2.63;;;;;;;;;;5091653;28;20040;-45
2023/04/03 12:27:03;;;;;;;6.50;2.65;;;;;;;;;;5090917;27;20036;-45
2023/04/03 12:29:35;;;;;;;10.88;2.90;;;;;;;;;;5096194;27;20122;-44
2023/04/03 12:32:08;;;;;;;8.23;2.30;;;;;;;;;;5097502;28;20733;-43
2023/04/03 12:34:42;;;;;;;9.30;2.80;;;;;;;;;;5092118;27;20035;-45
2023/04/03 12:37:16;;;;;;;8.90;2.73;;;;;;;;;;5069659;28;20182;-45
2023/04/03 12:39:53;;;;;;;7.53;2.70;;;;;;;;;;5078530;28;20490;-47
2023/04/03 12:42:31;;;;;;;8.90;2.63;;;;;;;;;;5082231;28;20040;-43
2023/04/03 12:45:03;;;;;;;8.40;2.60;;;;;;;;;;5073708;28;20039;-44
2023/04/03 12:47:33;;;;;;;5.90;2.63;;;;;;;;;;5087118;28;20548;-45
2023/04/03 12:50:02;;;;;;;10.80;2.70;;;;;;;;;;5079414;28;20074;-45
2023/04/03 12:52:36;;;;;;;11.77;2.97;;;;;;;;;;5082395;28;20036;-45
2023/04/03 12:55:09;;;;;;;8.30;2.67;;;;;;;;;;5074618;28;20059;-43
2023/04/03 12:57:40;;;;;;;9.30;2.60;;;;;;;;;;5084857;28;20506;-44
2023/04/03 13:00:22;;;;;;;8.50;2.47;;;;;;;;;;5074263;28;20044;-45
2023/04/03 13:02:49;;;;;;;6.50;2.33;;;;;;;;;;5078702;28;20540;-43
2023/04/03 13:05:19;;;;;;;8.23;2.30;;;;;;;;;;5079899;28;20043;-44
2023/04/03 13:07:49;;;;;;;8.15;2.88;;;;;;;;;;5074068;28;20040;-45
2023/04/03 13:10:19;;;;;;;9.93;3.00;;;;;;;;;;5085207;28;20123;-45
2023/04/03 13:12:49;;;;;;;9.48;3.03;;;;;;;;;;5081367;28;20043;-45
2023/04/03 13:15:19;;;;;;;7.03;2.93;;;;;;;;;;5077132;28;20355;-44
2023/04/03 13:17:48;;;;;;;8.57;3.08;;;;;;;;;;5075664;28;20130;-45
2023/04/03 13:20:19;;;;;;;9.82;3.17;;;;;;;;;;5080691;28;20126;-46
2023/04/03 13:22:52;;;;;;;9.35;3.10;;;;;;;;;;5083082;28;20084;-44
2023/04/03 13:25:21;;;;;;;9.70;3.58;;;;;;;;;;5076595;28;20036;-45
2023/04/03 13:27:51;;;;;;;7.57;3.37;;;;;;;;;;5081999;28;20043;-43
2023/04/03 13:30:33;;;;;;;8.57;3.00;;;;;;;;;;5079656;28;20038;-45
2023/04/03 13:33:02;;;;;;;8.45;3.05;;;;;;;;;;5078376;28;20070;-43
2023/04/03 13:35:32;;;;;;;9.77;3.60;;;;;;;;;;5070476;28;20032;-43
2023/04/03 13:38:01;;;;;;;8.65;3.20;;;;;;;;;;5085838;28;20046;-47
2023/04/03 13:40:29;;;;;;;9.37;3.47;;;;;;;;;;5087397;28;20935;-44
2023/04/03 13:43:20;;;;;;;9.18;2.97;;;;;;;;;;5080364;28;20063;-44
2023/04/03 13:45:55;;;;;;;6.38;2.65;;;;;;;;;;5077744;28;20063;-45
2023/04/03 13:48:25;;;;;;;8.52;2.92;;;;;;;;;;5068014;28;20036;-46
2023/04/03 13:51:00;;;;;;;9.07;3.40;;;;;;;;;;4726021;27;9999748;-45
2023/04/03 13:53:28;;;;;;;7.13;2.87;;;;;;;;;;5076463;28;20045;-43
2023/04/03 13:55:58;;;;;;;9.98;3.60;;;;;;;;;;5080730;28;20071;-43
2023/04/03 13:58:28;;;;;;;11.07;3.80;;;;;;;;;;5084120;28;20315;-47
2023/04/03 14:01:01;;;;;;;10.43;3.20;;;;;;;;;;5075022;27;20046;-43
2023/04/03 14:03:31;;;;;;;10.30;2.50;;;;;;;;;;5082759;28;20054;-44
2023/04/03 14:06:01;;;;;;;6.90;2.57;;;;;;;;;;5082314;28;20097;-44
2023/04/03 14:08:28;;;;;;;9.75;3.30;;;;;;;;;;5085640;28;20565;-44
2023/04/03 14:11:12;;;;;;;6.78;2.70;;;;;;;;;;5080463;28;20101;-43
2023/04/03 14:13:42;;;;;;;10.10;2.25;;;;;;;;;;5080884;28;20328;-42
2023/04/03 14:16:13;;;;;;;9.27;3.00;;;;;;;;;;5089709;28;20062;-43
2023/04/03 14:18:43;;;;;;;10.60;2.90;;;;;;;;;;5076971;28;20058;-47
2023/04/03 14:21:12;;;;;;;5.90;1.50;;;;;;;;;;5078170;28;20036;-43
2023/04/03 14:23:39;;;;;;;6.90;3.10;;;;;;;;;;5075202;28;20520;-44
2023/04/03 14:26:11;;;;;;;7.60;3.42;;;;;;;;;;5083843;28;20139;-44
2023/04/03 14:28:39;;;;;;;8.82;3.67;;;;;;;;;;5085972;27;20114;-43
2023/04/03 14:31:12;;;;;;;9.00;3.27;;;;;;;;;;5092291;28;20055;-43
2023/04/03 14:33:40;;;;;;;8.27;2.97;;;;;;;;;;5067223;28;20508;-43
2023/04/03 14:36:12;;;;;;;10.95;3.70;;;;;;;;;;5074319;28;20043;-42
2023/04/03 14:38:40;;;;;;;9.35;3.08;;;;;;;;;;5072501;28;20111;-43
2023/04/03 14:41:08;;;;;;;10.57;3.35;;;;;;;;;;5078116;28;20075;-44
2023/04/03 14:43:43;;;;;;;11.20;3.37;;;;;;;;;;5084749;28;20039;-43
2023/04/03 14:46:15;;;;;;;7.80;3.60;;;;;;;;;;5074384;28;20035;-44
2023/04/03 14:48:43;;;;;;;11.98;3.90;;;;;;;;;;5081031;28;20067;-45
2023/04/03 14:51:11;;;;;;;8.77;3.53;;;;;;;;;;5066998;28;20036;-43
2023/04/03 14:53:40;;;;;;;9.45;3.45;;;;;;;;;;5094506;27;20032;-44
2023/04/03 14:56:12;;;;;;;12.73;4.00;;;;;;;;;;5070016;28;20032;-43
2023/04/03 14:58:40;;;;;;;13.07;3.45;;;;;;;;;;5077808;28;20036;-45
2023/04/03 15:01:07;;;;;;;8.65;3.40;;;;;;;;;;5081168;28;20123;-43